Time;durP1;ratioP1;P1;durP2;ratioP2;P2;SDS_P1;SDS_P2;PMS_P1;PMS_P2;Temp;Humidity;BMP_temperature;BMP_pressure;BME280_temperature;BME280_humidity;BME280_pressure;Samples;Min_cycle;Max_cycle;Signal;HPM_P1;HPM_P2
2022/05/08 00:01:35;;;;;;;3.35;1.10;;;14.70;67.40;;;;;;5046329;28;20112;-59
2022/05/08 00:04:05;;;;;;;3.92;1.00;;;14.90;68.40;;;;;;5049053;28;20013;-60
2022/05/08 00:06:33;;;;;;;4.63;1.27;;;15.10;66.30;;;;;;5047635;28;20029;-60
2022/05/08 00:09:00;;;;;;;4.18;1.08;;;15.30;64.80;;;;;;5045487;28;20021;-59
2022/05/08 00:11:27;;;;;;;3.63;1.42;;;15.40;67.50;;;;;;5048457;28;20529;-59
2022/05/08 00:13:55;;;;;;;5.22;1.10;;;15.60;64.30;;;;;;5062079;28;20040;-59
2022/05/08 00:16:22;;;;;;;5.28;1.15;;;15.70;65.50;;;;;;5047709;28;20053;-59
2022/05/08 00:18:49;;;;;;;2.75;1.25;;;15.80;64.10;;;;;;5044284;28;20569;-59
2022/05/08 00:21:16;;;;;;;4.65;1.10;;;16.00;64.00;;;;;;5041453;28;20428;-61
2022/05/08 00:23:44;;;;;;;4.32;1.25;;;16.00;63.10;;;;;;5039518;28;20021;-60
2022/05/08 00:26:11;;;;;;;4.05;1.10;;;16.20;63.40;;;;;;5047920;28;20063;-60
2022/05/08 00:28:39;;;;;;;4.40;1.40;;;16.30;63.30;;;;;;5038778;28;20534;-60
2022/05/08 00:31:09;;;;;;;2.30;1.10;;;16.40;62.40;;;;;;5047925;28;20469;-60
2022/05/08 00:33:37;;;;;;;2.20;1.20;;;16.40;63.30;;;;;;5042491;28;20037;-60
2022/05/08 00:36:05;;;;;;;5.88;0.95;;;16.60;63.30;;;;;;5042043;28;20072;-61
2022/05/08 00:38:32;;;;;;;1.70;0.77;;;16.80;61.60;;;;;;5043081;28;20069;-61
2022/05/08 00:41:03;;;;;;;4.40;1.27;;;16.90;61.20;;;;;;5047744;28;20110;-61
2022/05/08 00:43:36;;;;;;;1.23;0.70;;;17.00;59.20;;;;;;5048643;28;20075;-62
2022/05/08 00:46:12;;;;;;;4.07;1.08;;;17.10;58.70;;;;;;5049121;28;20131;-62
2022/05/08 00:48:41;;;;;;;1.80;0.63;;;17.20;59.70;;;;;;5049889;28;20020;-61
2022/05/08 00:51:10;;;;;;;1.77;0.60;;;17.30;58.40;;;;;;5047888;28;20461;-61
2022/05/08 00:53:50;;;;;;;2.42;0.63;;;17.30;56.40;;;;;;5048407;28;20017;-62
2022/05/08 00:56:19;;;;;;;11.77;0.85;;;17.50;57.60;;;;;;5047544;28;20127;-62
2022/05/08 00:58:48;;;;;;;1.25;0.43;;;17.60;57.20;;;;;;5048787;28;20025;-61
2022/05/08 01:01:16;;;;;;;1.70;0.52;;;17.70;56.70;;;;;;5047139;28;20041;-62
2022/05/08 01:03:43;;;;;;;0.93;0.30;;;17.90;56.80;;;;;;5048688;28;20029;-62
2022/05/08 01:06:13;;;;;;;1.13;0.40;;;18.00;55.20;;;;;;5048995;28;20059;-61
2022/05/08 01:08:44;;;;;;;0.93;0.40;;;18.00;55.30;;;;;;5049896;28;20269;-62
2022/05/08 01:11:12;;;;;;;1.85;0.40;;;18.00;56.00;;;;;;5049947;28;20096;-62
2022/05/08 01:13:42;;;;;;;1.17;0.40;;;18.10;55.10;;;;;;5049897;28;20024;-61
2022/05/08 01:16:15;;;;;;;1.73;0.40;;;18.10;55.70;;;;;;5049894;28;20098;-61
2022/05/08 01:18:47;;;;;;;2.17;0.47;;;18.20;55.00;;;;;;5049719;28;20055;-61
2022/05/08 01:21:16;;;;;;;1.45;0.40;;;18.30;55.40;;;;;;5049640;28;20029;-61
2022/05/08 01:23:44;;;;;;;2.20;0.50;;;18.30;54.40;;;;;;5048429;28;20017;-62
2022/05/08 01:26:12;;;;;;;1.92;0.50;;;18.40;54.90;;;;;;5049770;28;20563;-61
2022/05/08 01:28:39;;;;;;;6.60;0.70;;;18.50;53.00;;;;;;5048281;28;20390;-62
2022/05/08 01:31:06;;;;;;;2.30;0.50;;;18.50;54.20;;;;;;5049703;28;20036;-62
2022/05/08 01:33:33;;;;;;;1.58;0.52;;;18.50;53.00;;;;;;5049781;28;20025;-61
2022/05/08 01:36:01;;;;;;;2.17;0.50;;;18.50;53.50;;;;;;5049494;28;20033;-62
2022/05/08 01:38:28;;;;;;;2.28;0.45;;;18.60;54.00;;;;;;5049199;28;20049;-61
2022/05/08 01:40:57;;;;;;;0.82;0.30;;;18.70;54.00;;;;;;5049447;28;20501;-61
2022/05/08 01:43:24;;;;;;;1.63;0.32;;;18.70;53.10;;;;;;5049429;28;20009;-61
2022/05/08 01:45:54;;;;;;;7.90;0.63;;;18.80;54.80;;;;;;5049568;28;20028;-62
2022/05/08 01:48:27;;;;;;;6.38;0.80;;;18.80;53.20;;;;;;5048982;28;20118;-61
2022/05/08 01:50:56;;;;;;;5.53;0.50;;;18.90;52.40;;;;;;5049307;28;20103;-62
2022/05/08 01:53:29;;;;;;;4.10;0.50;;;18.90;53.70;;;;;;5049351;28;20386;-61
2022/05/08 01:55:56;;;;;;;1.92;0.40;;;19.00;51.40;;;;;;5049391;28;20029;-61
2022/05/08 01:58:25;;;;;;;1.02;0.38;;;19.00;53.10;;;;;;5049406;28;20032;-62
2022/05/08 02:00:53;;;;;;;3.00;0.57;;;19.20;51.60;;;;;;5047857;28;20036;-62
2022/05/08 02:03:23;;;;;;;5.85;0.70;;;19.20;52.10;;;;;;5049663;28;20029;-69
2022/05/08 02:05:50;;;;;;;8.80;0.65;;;19.20;50.90;;;;;;5049585;28;20021;-62
2022/05/08 02:08:18;;;;;;;7.47;0.70;;;19.20;52.00;;;;;;5049807;28;20478;-62
2022/05/08 02:10:46;;;;;;;3.15;0.50;;;19.20;50.00;;;;;;5049091;28;20486;-62
2022/05/08 02:13:13;;;;;;;0.32;0.20;;;19.30;48.60;;;;;;5049349;28;20033;-62
2022/05/08 02:15:41;;;;;;;0.40;0.40;;;19.30;48.00;;;;;;5049130;28;20034;-61
2022/05/08 02:18:09;;;;;;;0.57;0.52;;;19.40;47.80;;;;;;5049079;28;20040;-61
2022/05/08 02:20:40;;;;;;;1.42;0.30;;;19.20;47.80;;;;;;5048786;28;20545;-61
2022/05/08 02:23:08;;;;;;;0.90;0.30;;;19.30;50.60;;;;;;5047835;28;20036;-61
2022/05/08 02:25:37;;;;;;;0.82;0.38;;;19.30;48.60;;;;;;5047785;28;20079;-61
2022/05/08 02:28:05;;;;;;;1.38;0.40;;;19.40;49.00;;;;;;5049109;28;20025;-61
2022/05/08 02:30:32;;;;;;;1.50;0.30;;;19.40;47.70;;;;;;5048883;28;20067;-62
2022/05/08 02:33:00;;;;;;;0.82;0.40;;;19.40;49.00;;;;;;5049033;28;20378;-62
2022/05/08 02:35:27;;;;;;;0.82;0.40;;;19.40;47.70;;;;;;5048754;28;20098;-62
2022/05/08 02:37:56;;;;;;;1.13;0.35;;;19.40;49.00;;;;;;5048732;28;20021;-62
2022/05/08 02:40:24;;;;;;;0.55;0.45;;;19.40;49.00;;;;;;5048885;28;20034;-62
2022/05/08 02:42:52;;;;;;;2.35;0.57;;;19.50;49.70;;;;;;5049313;28;20029;-61
2022/05/08 02:45:20;;;;;;;0.70;0.38;;;19.50;48.20;;;;;;5038788;28;20095;-59
2022/05/08 02:47:48;;;;;;;2.72;0.60;;;19.50;49.50;;;;;;5043336;28;20553;-61
2022/05/08 02:50:15;;;;;;;1.23;0.45;;;19.50;49.50;;;;;;5048796;28;20021;-59
2022/05/08 02:52:43;;;;;;;0.50;0.20;;;19.60;48.00;;;;;;5045394;28;20199;-60
2022/05/08 03:00:45;;;;;;;1.52;0.55;;;19.80;47.60;;;;;;5042750;28;20051;-59
2022/05/08 03:03:13;;;;;;;1.58;0.40;;;19.70;47.70;;;;;;5048112;28;20107;-59
2022/05/08 03:05:45;;;;;;;0.35;0.30;;;19.70;47.80;;;;;;5058364;28;20058;-59
2022/05/08 03:08:15;;;;;;;0.20;0.20;;;19.70;49.00;;;;;;5039703;28;20018;-60
2022/05/08 03:13:28;;;;;;;0.70;0.40;;;19.60;47.30;;;;;;5047572;28;20078;-62
2022/05/08 03:15:55;;;;;;;0.85;0.40;;;19.60;48.40;;;;;;5050920;28;20025;-62
2022/05/08 03:18:22;;;;;;;2.15;0.40;;;19.70;49.60;;;;;;5048969;28;20040;-65
2022/05/08 03:20:50;;;;;;;1.13;0.40;;;19.70;48.90;;;;;;5042877;28;20040;-63
2022/05/08 03:23:17;;;;;;;1.20;0.32;;;19.80;48.10;;;;;;5047995;28;20025;-61
2022/05/08 03:25:44;;;;;;;2.08;0.40;;;19.80;47.40;;;;;;5044919;28;20389;-61
2022/05/08 03:28:15;;;;;;;4.65;0.70;;;19.80;47.70;;;;;;5050885;28;20017;-61
2022/05/08 03:30:43;;;;;;;0.80;0.40;;;19.80;47.70;;;;;;5040871;28;20029;-60
2022/05/08 03:33:11;;;;;;;1.58;0.73;;;19.80;48.60;;;;;;5057859;28;20021;-61
2022/05/08 03:35:39;;;;;;;4.65;1.00;;;19.90;49.40;;;;;;5044727;28;20124;-60
2022/05/08 03:38:08;;;;;;;1.10;0.52;;;19.90;48.50;;;;;;5049252;28;20114;-59
2022/05/08 03:40:36;;;;;;;1.52;0.40;;;19.90;48.10;;;;;;5045884;28;20049;-59
2022/05/08 03:43:04;;;;;;;3.90;0.40;;;19.80;47.80;;;;;;5048275;28;20671;-60
2022/05/08 03:45:31;;;;;;;2.30;0.70;;;19.80;48.00;;;;;;5036765;28;20567;-59
2022/05/08 03:48:02;;;;;;;1.92;0.40;;;19.90;48.90;;;;;;5032613;28;20021;-60
2022/05/08 03:50:29;;;;;;;1.27;0.40;;;19.90;49.30;;;;;;5029881;28;20045;-59
2022/05/08 03:52:58;;;;;;;2.22;0.47;;;19.90;48.70;;;;;;5029665;28;20032;-60
2022/05/08 03:55:26;;;;;;;1.83;0.50;;;19.90;50.20;;;;;;5029923;28;20232;-59
2022/05/08 03:57:53;;;;;;;2.30;0.38;;;20.00;49.30;;;;;;5030478;28;20104;-60
2022/05/08 04:00:21;;;;;;;2.97;0.40;;;20.00;49.10;;;;;;5049696;28;20037;-59
2022/05/08 04:02:48;;;;;;;1.90;0.40;;;20.00;48.40;;;;;;5049732;28;20036;-59
2022/05/08 04:05:16;;;;;;;2.75;0.57;;;19.90;48.00;;;;;;5050806;28;20543;-59
2022/05/08 04:07:44;;;;;;;2.92;0.50;;;19.90;48.50;;;;;;5049852;28;20070;-60
2022/05/08 04:10:12;;;;;;;4.50;0.52;;;19.90;48.40;;;;;;5051158;28;20035;-60
2022/05/08 04:12:42;;;;;;;1.70;0.50;;;19.90;48.90;;;;;;5046493;28;20685;-60
2022/05/08 04:17:55;;;;;;;1.42;0.40;;;20.00;49.20;;;;;;5047658;28;20603;-59
2022/05/08 04:20:23;;;;;;;1.17;0.35;;;20.00;50.30;;;;;;5049821;28;20090;-60
2022/05/08 04:25:35;;;;;;;3.58;0.90;;;20.00;48.30;;;;;;5049840;28;20091;-61
2022/05/08 04:28:03;;;;;;;1.85;0.50;;;19.90;47.70;;;;;;5048486;28;20389;-60
2022/05/08 04:30:30;;;;;;;3.42;0.40;;;19.90;47.70;;;;;;5048650;28;20048;-60
2022/05/08 04:32:58;;;;;;;2.30;0.50;;;19.80;48.80;;;;;;5048582;28;20024;-60
2022/05/08 04:35:25;;;;;;;3.95;0.50;;;19.90;48.30;;;;;;5048424;28;20025;-61
2022/05/08 04:37:52;;;;;;;1.92;0.38;;;19.80;49.50;;;;;;5047985;28;20023;-63
2022/05/08 04:40:20;;;;;;;1.23;0.32;;;19.80;49.30;;;;;;5049008;28;20036;-60
2022/05/08 04:42:47;;;;;;;1.58;0.47;;;19.80;48.80;;;;;;5048248;28;20055;-60
2022/05/08 04:45:14;;;;;;;0.43;0.30;;;19.90;49.90;;;;;;5048126;28;20029;-61
2022/05/08 04:47:41;;;;;;;1.92;0.40;;;19.80;48.40;;;;;;5049690;28;20051;-61
2022/05/08 04:50:09;;;;;;;5.07;0.93;;;19.80;49.00;;;;;;5048602;28;20115;-61
2022/05/08 04:52:36;;;;;;;1.33;0.40;;;19.70;49.70;;;;;;5049867;28;20033;-60
2022/05/08 04:55:04;;;;;;;0.85;0.30;;;19.60;48.90;;;;;;5049003;28;20028;-61
2022/05/08 04:57:31;;;;;;;1.23;0.30;;;19.50;48.80;;;;;;5050298;28;20033;-60
2022/05/08 05:00:00;;;;;;;3.10;0.45;;;19.40;49.50;;;;;;5049645;28;20041;-61
2022/05/08 05:02:28;;;;;;;1.13;0.50;;;19.40;50.50;;;;;;5049739;28;20024;-61
2022/05/08 05:04:55;;;;;;;1.17;0.40;;;19.40;51.30;;;;;;5049934;28;20050;-61
2022/05/08 05:07:22;;;;;;;1.38;0.38;;;19.40;49.30;;;;;;5048761;28;20021;-61
2022/05/08 05:09:49;;;;;;;1.55;0.45;;;19.40;49.70;;;;;;5049073;28;20401;-60
2022/05/08 05:12:17;;;;;;;1.25;0.70;;;19.50;50.40;;;;;;5049700;28;20025;-60
2022/05/08 05:14:44;;;;;;;0.63;0.38;;;19.50;49.10;;;;;;5049829;28;20060;-61
2022/05/08 05:17:11;;;;;;;2.95;0.50;;;19.40;49.30;;;;;;5049659;28;20032;-61
2022/05/08 05:19:39;;;;;;;3.20;0.60;;;19.40;49.00;;;;;;5045420;28;20036;-60
2022/05/08 05:22:06;;;;;;;1.73;0.40;;;19.30;49.90;;;;;;5046603;28;20508;-60
2022/05/08 05:24:33;;;;;;;1.75;0.55;;;19.30;49.30;;;;;;5040719;28;20440;-60
2022/05/08 05:27:01;;;;;;;0.90;0.52;;;19.20;50.30;;;;;;5037170;28;20481;-61
2022/05/08 05:29:28;;;;;;;1.85;0.68;;;19.20;50.50;;;;;;5046822;28;20029;-61
2022/05/08 05:31:55;;;;;;;1.00;0.20;;;19.10;50.90;;;;;;5045271;28;20025;-61
2022/05/08 05:34:22;;;;;;;0.60;0.35;;;19.10;50.60;;;;;;5046770;28;20078;-61
2022/05/08 05:36:50;;;;;;;2.47;1.00;;;19.20;50.30;;;;;;5045407;28;20032;-61
2022/05/08 05:39:17;;;;;;;2.05;0.47;;;19.20;50.20;;;;;;5045384;28;20102;-61
2022/05/08 05:41:45;;;;;;;1.88;0.50;;;19.20;49.60;;;;;;5046353;28;20483;-60
2022/05/08 05:44:12;;;;;;;1.73;0.50;;;19.10;50.00;;;;;;5046660;28;20124;-60
2022/05/08 05:49:27;;;;;;;4.90;0.68;;;19.20;50.00;;;;;;5045821;28;20726;-63
2022/05/08 05:51:56;;;;;;;4.32;0.32;;;19.10;50.00;;;;;;5046463;28;20398;-61
2022/05/08 05:54:24;;;;;;;1.23;0.40;;;19.20;50.40;;;;;;5043405;28;20032;-61
2022/05/08 05:56:52;;;;;;;2.17;0.40;;;19.20;49.40;;;;;;5045114;28;20035;-61
2022/05/08 05:59:19;;;;;;;2.53;0.50;;;19.20;49.60;;;;;;5045859;28;20021;-61
2022/05/08 06:01:46;;;;;;;2.13;0.50;;;19.30;49.60;;;;;;5044457;28;20489;-61
2022/05/08 06:04:14;;;;;;;2.38;0.98;;;19.30;48.80;;;;;;5023480;28;20522;-61
2022/05/08 06:06:41;;;;;;;2.83;0.50;;;19.30;50.20;;;;;;5023703;28;20035;-61
2022/05/08 06:09:08;;;;;;;2.15;0.82;;;19.30;49.00;;;;;;5025230;28;20489;-61
2022/05/08 06:11:35;;;;;;;1.98;1.00;;;19.30;48.70;;;;;;5037864;28;20029;-61
2022/05/08 06:14:03;;;;;;;1.25;0.60;;;19.30;50.50;;;;;;5038984;28;20035;-61
2022/05/08 06:16:31;;;;;;;2.13;0.70;;;19.30;51.00;;;;;;5045751;28;20053;-62
2022/05/08 06:19:00;;;;;;;2.10;0.90;;;19.40;52.00;;;;;;5047319;28;20039;-62
2022/05/08 06:21:27;;;;;;;1.55;0.73;;;19.30;51.20;;;;;;5040825;28;20040;-61
2022/05/08 06:23:54;;;;;;;2.78;0.80;;;19.30;50.90;;;;;;5043707;28;20108;-61
2022/05/08 06:26:22;;;;;;;3.40;0.80;;;19.30;51.30;;;;;;5032846;28;20044;-66
2022/05/08 06:28:49;;;;;;;1.67;0.60;;;19.20;51.70;;;;;;5033914;28;20036;-60
2022/05/08 06:31:17;;;;;;;2.30;0.68;;;19.20;50.80;;;;;;5046623;28;20071;-60
2022/05/08 06:33:46;;;;;;;1.65;0.60;;;19.10;50.50;;;;;;5036928;28;20029;-61
2022/05/08 06:36:14;;;;;;;3.00;0.70;;;19.00;51.10;;;;;;5039054;28;20063;-61
2022/05/08 06:38:41;;;;;;;2.00;0.70;;;18.90;50.30;;;;;;5039782;28;20081;-61
2022/05/08 06:41:09;;;;;;;2.67;0.70;;;18.90;51.00;;;;;;5045435;28;20041;-61
2022/05/08 06:43:40;;;;;;;2.58;0.50;;;18.80;51.80;;;;;;5047980;28;20048;-61
2022/05/08 06:46:08;;;;;;;3.30;0.77;;;18.70;51.30;;;;;;5049151;28;20025;-61
2022/05/08 06:48:36;;;;;;;1.15;0.55;;;18.60;52.20;;;;;;5050009;28;20032;-61
2022/05/08 06:51:03;;;;;;;2.38;0.45;;;18.50;52.20;;;;;;5045750;28;20036;-62
2022/05/08 06:53:32;;;;;;;2.28;0.73;;;18.40;52.40;;;;;;5048538;28;20166;-62
2022/05/08 06:55:59;;;;;;;3.58;0.70;;;18.30;52.70;;;;;;5047962;28;20025;-62
2022/05/08 06:58:27;;;;;;;1.23;0.50;;;18.10;52.60;;;;;;5043979;28;20135;-60
2022/05/08 07:03:39;;;;;;;2.05;0.60;;;17.90;53.90;;;;;;5045949;28;20047;-60
2022/05/08 07:06:07;;;;;;;5.38;0.80;;;17.60;55.00;;;;;;5047913;28;20040;-60
2022/05/08 07:08:35;;;;;;;2.22;0.88;;;17.30;55.80;;;;;;5048361;28;20025;-62
2022/05/08 07:11:02;;;;;;;1.90;0.90;;;17.10;57.20;;;;;;5047239;28;20386;-62
2022/05/08 07:13:33;;;;;;;3.75;0.85;;;17.00;57.60;;;;;;5045803;28;20485;-62
2022/05/08 07:16:00;;;;;;;3.08;1.08;;;16.80;58.00;;;;;;5046631;28;20084;-61
2022/05/08 07:18:29;;;;;;;1.40;0.65;;;16.60;59.70;;;;;;5048699;28;20500;-61
2022/05/08 07:20:57;;;;;;;2.08;1.08;;;16.40;59.40;;;;;;5045322;28;20509;-63
2022/05/08 07:23:24;;;;;;;5.85;1.10;;;16.30;59.90;;;;;;5043266;28;20028;-62
2022/05/08 07:25:51;;;;;;;4.50;0.90;;;16.10;60.10;;;;;;5045988;28;20025;-61
2022/05/08 07:28:18;;;;;;;2.67;1.00;;;16.10;60.40;;;;;;5047867;28;20100;-63
2022/05/08 07:30:45;;;;;;;3.78;1.25;;;15.90;61.30;;;;;;5046599;28;20072;-63
2022/05/08 07:33:16;;;;;;;3.35;0.98;;;15.70;61.30;;;;;;5046107;28;20143;-63
2022/05/08 07:38:31;;;;;;;6.22;1.75;;;15.40;62.50;;;;;;5045278;28;20067;-62
2022/05/08 07:40:59;;;;;;;4.95;2.03;;;15.30;63.20;;;;;;5050679;28;20455;-63
2022/05/08 07:43:26;;;;;;;4.20;1.10;;;15.20;63.80;;;;;;5048618;28;20386;-65
2022/05/08 07:45:54;;;;;;;1.80;0.63;;;15.20;64.00;;;;;;5050375;28;20021;-64
2022/05/08 07:48:21;;;;;;;3.08;1.00;;;15.20;64.20;;;;;;5047892;28;20648;-64
2022/05/08 07:50:49;;;;;;;3.05;0.77;;;15.00;64.90;;;;;;5045406;28;20033;-64
2022/05/08 07:53:17;;;;;;;2.92;0.88;;;14.90;65.50;;;;;;5046375;28;20389;-66
2022/05/08 07:55:51;;;;;;;2.65;1.08;;;14.80;66.40;;;;;;5046624;28;20036;-65
2022/05/08 07:58:18;;;;;;;2.33;0.73;;;14.60;67.10;;;;;;5044585;28;20028;-63
2022/05/08 08:00:46;;;;;;;4.13;0.93;;;14.50;67.50;;;;;;5045388;28;20070;-64
2022/05/08 08:03:13;;;;;;;2.97;0.82;;;14.40;68.70;;;;;;5042403;28;20052;-64
2022/05/08 08:05:40;;;;;;;3.20;1.60;;;14.20;69.00;;;;;;5041707;28;20048;-66
2022/05/08 08:08:08;;;;;;;3.35;1.13;;;14.10;69.30;;;;;;5038108;28;20029;-66
2022/05/08 08:10:35;;;;;;;2.35;0.88;;;14.00;69.50;;;;;;5046310;28;20037;-66
2022/05/08 08:13:02;;;;;;;3.55;1.10;;;13.90;70.40;;;;;;5044777;28;20024;-66
2022/05/08 08:15:31;;;;;;;3.35;1.02;;;13.90;70.50;;;;;;5045562;28;20072;-66
2022/05/08 08:17:58;;;;;;;2.17;1.20;;;13.90;71.00;;;;;;5042032;28;20033;-64
2022/05/08 08:20:26;;;;;;;3.55;1.50;;;13.90;71.60;;;;;;5042751;28;20587;-65
2022/05/08 08:22:53;;;;;;;3.28;1.73;;;13.90;71.20;;;;;;5044688;28;20060;-64
2022/05/08 08:25:22;;;;;;;2.80;0.90;;;13.90;71.40;;;;;;5046890;28;20124;-64
2022/05/08 08:27:49;;;;;;;4.10;1.00;;;13.90;71.30;;;;;;5060092;28;20045;-65
2022/05/08 08:30:16;;;;;;;3.30;0.82;;;13.90;70.70;;;;;;5045935;28;20516;-65
2022/05/08 08:32:43;;;;;;;3.05;1.17;;;14.00;70.70;;;;;;5046406;28;20079;-66
2022/05/08 08:35:11;;;;;;;2.53;1.00;;;14.00;70.70;;;;;;5039643;28;20056;-65
2022/05/08 08:37:38;;;;;;;4.43;0.90;;;14.00;70.50;;;;;;5040819;28;20394;-65
2022/05/08 08:40:05;;;;;;;2.75;0.95;;;14.00;70.60;;;;;;5033156;28;20037;-65
2022/05/08 08:42:33;;;;;;;4.20;1.33;;;14.10;70.50;;;;;;5037546;28;20024;-66
2022/05/08 08:48:03;;;;;;;2.38;0.80;;;14.20;71.20;;;;;;5039872;28;20144;-67
2022/05/08 08:50:32;;;;;;;2.30;1.08;;;14.20;71.40;;;;;;5057141;28;20074;-65
2022/05/08 08:53:00;;;;;;;2.90;1.15;;;14.20;71.20;;;;;;5043541;28;20072;-66
2022/05/08 08:55:28;;;;;;;3.40;1.00;;;14.20;71.30;;;;;;5042311;28;20501;-65
2022/05/08 08:57:55;;;;;;;4.30;1.10;;;14.10;71.80;;;;;;5037497;28;20558;-66
2022/05/08 09:00:22;;;;;;;4.38;1.35;;;14.20;72.50;;;;;;5040155;28;20139;-66
2022/05/08 09:02:52;;;;;;;3.55;0.90;;;14.20;72.20;;;;;;5051664;28;20025;-65
2022/05/08 09:05:19;;;;;;;1.33;0.65;;;14.20;72.00;;;;;;5050123;28;20059;-66
2022/05/08 09:07:48;;;;;;;1.80;0.90;;;14.10;72.00;;;;;;5047385;28;20056;-66
2022/05/08 09:10:15;;;;;;;3.50;1.10;;;14.10;72.00;;;;;;5043774;28;20107;-66
2022/05/08 09:12:56;;;;;;;3.42;1.30;;;14.00;72.20;;;;;;5043676;28;20086;-66
2022/05/08 09:15:29;;;;;;;2.70;1.10;;;13.90;72.80;;;;;;5046804;28;20063;-66
2022/05/08 09:17:59;;;;;;;1.83;0.95;;;13.80;73.00;;;;;;5039883;28;20030;-67
2022/05/08 09:20:31;;;;;;;3.83;1.02;;;13.70;72.80;;;;;;5037777;28;20038;-65
2022/05/08 09:23:12;;;;;;;3.85;1.13;;;13.60;73.10;;;;;;5038414;28;20017;-66
2022/05/08 09:26:08;;;;;;;3.05;1.33;;;13.50;73.30;;;;;;5046535;28;20024;-66
2022/05/08 09:28:46;;;;;;;2.78;1.05;;;13.50;73.70;;;;;;5036821;28;20092;-67
2022/05/08 09:31:15;;;;;;;2.03;1.02;;;13.40;74.40;;;;;;5039936;28;20024;-66
2022/05/08 09:33:43;;;;;;;1.35;0.73;;;13.40;73.90;;;;;;5045388;28;20544;-66
2022/05/08 09:36:11;;;;;;;3.25;1.13;;;13.40;73.70;;;;;;5041829;28;20025;-66
2022/05/08 09:38:55;;;;;;;2.67;1.10;;;13.40;73.70;;;;;;5033694;28;20521;-66
2022/05/08 09:41:28;;;;;;;3.70;1.33;;;13.30;75.00;;;;;;5046632;28;20033;-66
2022/05/08 09:44:08;;;;;;;1.52;0.82;;;13.20;75.90;;;;;;5045720;28;20231;-66
2022/05/08 09:46:45;;;;;;;3.97;0.80;;;13.20;75.30;;;;;;5045880;28;20029;-65
2022/05/08 09:49:33;;;;;;;2.60;1.17;;;13.10;74.50;;;;;;5044183;28;20033;-66
2022/05/08 09:52:02;;;;;;;1.40;0.82;;;13.00;74.70;;;;;;5046538;28;20035;-66
2022/05/08 09:54:30;;;;;;;2.53;1.13;;;12.90;75.20;;;;;;5040338;28;20035;-66
2022/05/08 09:56:59;;;;;;;2.03;1.13;;;12.90;74.70;;;;;;5046763;28;20023;-65
2022/05/08 09:59:26;;;;;;;2.88;1.65;;;12.80;74.70;;;;;;5046247;28;20501;-65
2022/05/08 10:01:53;;;;;;;3.60;1.30;;;12.60;75.50;;;;;;5046535;28;20029;-66
2022/05/08 10:04:20;;;;;;;3.95;2.10;;;12.60;76.90;;;;;;5047012;28;20021;-65
2022/05/08 10:06:51;;;;;;;5.00;2.80;;;12.40;77.20;;;;;;5046041;28;20029;-65
2022/05/08 10:14:53;;;;;;;14.68;2.10;;;12.20;82.00;;;;;;5051283;28;20617;-66
2022/05/08 10:17:29;;;;;;;7.30;2.28;;;12.20;83.90;;;;;;5050603;28;20035;-66
2022/05/08 10:19:57;;;;;;;9.88;2.70;;;12.10;82.70;;;;;;5049659;28;20528;-67
2022/05/08 10:22:24;;;;;;;7.85;2.80;;;12.10;82.40;;;;;;5050353;28;20075;-66
2022/05/08 10:24:54;;;;;;;8.13;3.75;;;12.10;83.00;;;;;;5050997;28;20025;-66
2022/05/08 10:27:33;;;;;;;20.20;4.57;;;12.10;82.10;;;;;;5050582;28;20028;-67
2022/05/08 10:30:03;;;;;;;12.30;3.58;;;12.10;81.50;;;;;;5049953;28;20151;-67
2022/05/08 10:32:33;;;;;;;15.90;3.42;;;12.20;80.90;;;;;;5049729;28;20078;-68
2022/05/08 10:35:27;;;;;;;12.50;3.42;;;12.20;80.70;;;;;;5050180;28;20094;-67
2022/05/08 10:38:04;;;;;;;10.38;3.67;;;12.10;80.80;;;;;;5048902;28;20055;-67
2022/05/08 10:40:32;;;;;;;13.13;2.50;;;12.10;81.30;;;;;;5049747;28;20064;-67
2022/05/08 10:43:18;;;;;;;6.75;2.80;;;12.10;81.00;;;;;;5064924;28;20029;-67
2022/05/08 10:45:46;;;;;;;4.25;2.22;;;12.00;80.70;;;;;;5048483;28;20071;-67
2022/05/08 10:48:18;;;;;;;8.52;2.63;;;11.90;80.30;;;;;;5049597;28;20676;-67
2022/05/08 10:50:52;;;;;;;8.57;3.40;;;11.90;80.80;;;;;;5049630;28;20689;-67
2022/05/08 10:53:33;;;;;;;5.28;2.38;;;11.90;80.90;;;;;;5050103;28;20035;-67
2022/05/08 10:56:05;;;;;;;3.65;1.80;;;11.90;80.40;;;;;;5049134;28;20108;-67
2022/05/08 10:58:34;;;;;;;3.65;1.75;;;12.00;79.90;;;;;;5046216;28;20079;-64
2022/05/08 11:01:04;;;;;;;4.45;1.67;;;12.10;79.00;;;;;;5045523;28;20040;-67
2022/05/08 11:03:35;;;;;;;7.47;1.65;;;12.30;78.30;;;;;;5050029;28;20025;-67
2022/05/08 11:06:04;;;;;;;9.43;1.73;;;12.40;77.70;;;;;;5050297;28;20025;-67
2022/05/08 11:08:34;;;;;;;3.60;1.48;;;12.40;78.00;;;;;;5049729;28;20020;-67
2022/05/08 11:11:08;;;;;;;6.53;1.67;;;12.30;77.80;;;;;;5043111;28;20136;-67
2022/05/08 11:13:43;;;;;;;5.10;1.83;;;12.30;77.90;;;;;;5041120;28;21010;-67
2022/05/08 11:16:12;;;;;;;8.23;2.60;;;12.20;78.60;;;;;;5045651;28;20021;-67
2022/05/08 11:18:40;;;;;;;3.10;1.40;;;12.10;78.60;;;;;;5041135;28;20025;-67
2022/05/08 11:21:09;;;;;;;8.07;2.00;;;11.90;78.90;;;;;;5040370;28;20470;-67
2022/05/08 11:23:44;;;;;;;4.35;1.92;;;11.80;80.30;;;;;;5044567;28;20482;-67
2022/05/08 11:26:13;;;;;;;3.00;1.60;;;11.60;80.10;;;;;;5042025;28;20482;-68
2022/05/08 11:28:58;;;;;;;6.22;1.90;;;11.60;81.00;;;;;;5043091;28;20498;-67
2022/05/08 11:31:28;;;;;;;5.30;1.75;;;11.40;81.20;;;;;;5047610;28;20025;-67
2022/05/08 11:36:44;;;;;;;7.88;1.90;;;11.30;82.80;;;;;;5045866;28;20036;-67
2022/05/08 11:39:15;;;;;;;5.43;1.65;;;11.20;83.60;;;;;;5044598;28;20816;-67
2022/05/08 11:41:44;;;;;;;9.40;1.98;;;11.10;83.70;;;;;;5049273;28;20369;-67
2022/05/08 11:44:14;;;;;;;5.10;1.98;;;11.00;84.40;;;;;;5046062;28;20037;-67
2022/05/08 11:46:45;;;;;;;3.72;1.67;;;11.00;85.80;;;;;;5048009;28;20112;-67
2022/05/08 11:49:27;;;;;;;6.05;1.92;;;10.90;86.10;;;;;;5046647;28;20533;-67
2022/05/08 11:51:59;;;;;;;3.92;1.55;;;10.90;86.10;;;;;;5034514;28;20393;-67
2022/05/08 11:54:32;;;;;;;3.08;1.80;;;10.80;86.00;;;;;;5047246;28;20029;-67
2022/05/08 11:57:21;;;;;;;4.95;1.60;;;10.80;86.50;;;;;;5053703;28;20025;-67
2022/05/08 12:00:06;;;;;;;5.88;1.90;;;10.70;87.80;;;;;;5045277;28;20036;-67
2022/05/08 12:02:47;;;;;;;4.68;1.83;;;10.70;87.30;;;;;;5042908;28;20140;-67
2022/05/08 12:05:19;;;;;;;3.45;1.50;;;10.70;88.00;;;;;;5042559;28;20657;-67
2022/05/08 12:07:46;;;;;;;2.20;1.10;;;10.70;88.70;;;;;;5045710;28;20025;-67
2022/05/08 12:10:15;;;;;;;2.25;0.98;;;10.80;89.20;;;;;;5044859;28;20024;-68
2022/05/08 12:12:44;;;;;;;1.48;1.08;;;11.00;88.20;;;;;;5044374;28;20082;-65
2022/05/08 12:15:15;;;;;;;3.47;1.00;;;11.10;88.20;;;;;;5044967;28;20029;-67
2022/05/08 12:17:49;;;;;;;3.40;0.88;;;11.20;87.00;;;;;;5041674;28;20086;-66
2022/05/08 12:20:33;;;;;;;5.55;1.00;;;11.20;86.50;;;;;;5042998;28;20044;-66
2022/05/08 12:23:05;;;;;;;2.37;0.60;;;11.20;87.30;;;;;;5039214;28;20075;-67
2022/05/08 12:25:35;;;;;;;1.67;1.08;;;11.10;86.40;;;;;;5038310;28;20274;-67
2022/05/08 12:28:03;;;;;;;2.67;1.10;;;11.10;87.30;;;;;;5044773;28;20186;-66
2022/05/08 12:30:30;;;;;;;1.85;0.88;;;11.00;87.70;;;;;;5046022;28;20389;-66
2022/05/08 12:32:58;;;;;;;4.40;0.88;;;11.00;89.20;;;;;;5044659;28;20021;-67
2022/05/08 12:35:25;;;;;;;6.50;1.15;;;11.00;88.30;;;;;;5046653;28;20032;-67
2022/05/08 12:37:53;;;;;;;3.95;0.90;;;11.10;88.90;;;;;;5044531;28;20359;-67
2022/05/08 12:40:20;;;;;;;2.78;0.82;;;11.30;88.20;;;;;;5058713;28;20037;-67
2022/05/08 12:42:47;;;;;;;2.15;1.02;;;11.40;87.30;;;;;;5046455;28;20155;-67
2022/05/08 12:45:14;;;;;;;2.33;1.52;;;11.40;86.90;;;;;;5042581;28;20476;-66
2022/05/08 12:47:42;;;;;;;3.00;0.90;;;11.50;86.50;;;;;;5047945;28;20029;-66
2022/05/08 12:50:10;;;;;;;1.65;0.70;;;11.60;85.90;;;;;;5047007;28;20792;-67
2022/05/08 12:52:39;;;;;;;1.98;0.85;;;11.70;85.40;;;;;;5047520;28;20401;-67
2022/05/08 12:55:07;;;;;;;4.22;0.80;;;11.70;85.90;;;;;;5042329;28;20076;-67
2022/05/08 13:00:19;;;;;;;1.95;0.88;;;11.70;85.70;;;;;;5047526;28;20141;-66
2022/05/08 13:02:47;;;;;;;5.55;1.10;;;11.70;86.10;;;;;;5049017;28;20036;-67
2022/05/08 13:05:14;;;;;;;1.65;0.70;;;11.70;86.40;;;;;;5040569;28;20018;-67
2022/05/08 13:07:41;;;;;;;3.55;0.95;;;11.60;86.50;;;;;;5049730;28;20056;-67
2022/05/08 13:10:09;;;;;;;1.80;0.82;;;11.60;86.80;;;;;;5043766;28;20036;-66
2022/05/08 13:12:36;;;;;;;3.38;1.58;;;11.60;87.10;;;;;;5047646;28;20028;-66
2022/05/08 13:15:04;;;;;;;3.33;1.05;;;11.50;87.20;;;;;;5040034;28;20514;-66
2022/05/08 13:17:31;;;;;;;3.50;1.30;;;11.40;87.70;;;;;;5041904;28;20070;-65
2022/05/08 13:20:01;;;;;;;4.25;2.05;;;11.30;88.50;;;;;;5038987;28;20041;-65
2022/05/08 13:22:28;;;;;;;5.15;1.67;;;11.30;89.50;;;;;;5041539;28;20032;-66
2022/05/08 13:24:56;;;;;;;3.30;1.70;;;11.30;90.20;;;;;;5047523;28;20029;-66
2022/05/08 13:27:23;;;;;;;3.30;1.60;;;11.30;89.70;;;;;;5047681;28;20500;-65
2022/05/08 13:29:51;;;;;;;4.20;2.03;;;11.40;89.00;;;;;;5044539;28;20056;-66
2022/05/08 13:32:18;;;;;;;3.40;1.45;;;11.60;87.80;;;;;;5045652;28;20029;-66